createdAt,value
2018-06-19T00:00:10.566Z,66.27
2018-06-19T00:02:22.921Z,66.05
2018-06-19T00:04:35.323Z,65.63
2018-06-19T00:06:47.747Z,66.24
2018-06-19T00:09:00.229Z,66.19
2018-06-19T00:11:12.745Z,67.34
2018-06-19T00:13:25.163Z,66.72
2018-06-19T00:15:37.598Z,66.66
2018-06-19T00:17:54.157Z,66.51
2018-06-19T00:20:06.606Z,67.46
2018-06-19T00:22:18.998Z,67.02
2018-06-19T00:24:31.463Z,67.07
2018-06-19T00:26:43.939Z,67.23
2018-06-19T00:28:56.460Z,67.11
2018-06-19T00:31:09.001Z,67.01
2018-06-19T00:33:21.467Z,67.09
2018-06-19T00:35:33.824Z,68.20
2018-06-19T00:37:46.232Z,68.30
2018-06-19T00:39:58.694Z,67.82
2018-06-19T00:42:11.130Z,67.80
2018-06-19T00:44:23.486Z,68.26
2018-06-19T00:46:37.831Z,67.72
2018-06-19T00:48:50.291Z,67.87
2018-06-19T00:51:02.627Z,67.78
2018-06-19T00:53:14.988Z,67.95
2018-06-19T00:55:27.449Z,67.81
2018-06-19T00:57:39.842Z,68.13
2018-06-19T00:59:52.287Z,69.15
2018-06-19T01:02:04.690Z,68.74
2018-06-19T01:04:17.086Z,69.32
2018-06-19T01:06:29.506Z,69.98
2018-06-19T01:08:41.924Z,69.16
2018-06-19T01:10:54.316Z,69.27
2018-06-19T01:13:06.705Z,69.38
2018-06-19T01:15:19.095Z,69.63
2018-06-19T01:17:31.485Z,69.58
2018-06-19T01:19:44.030Z,69.02
2018-06-19T01:21:56.410Z,69.09
2018-06-19T01:24:08.753Z,68.93
2018-06-19T01:26:21.152Z,68.98
2018-06-19T01:28:33.528Z,69.10
2018-06-19T01:30:46.002Z,69.54
2018-06-19T01:32:58.323Z,69.75
2018-06-19T01:35:10.976Z,69.85
2018-06-19T01:37:23.403Z,70.23
2018-06-19T01:39:35.838Z,70.51
2018-06-19T01:41:48.279Z,69.97
2018-06-19T01:44:00.709Z,69.91
2018-06-19T01:46:13.089Z,69.83
2018-06-19T01:48:25.422Z,70.75
2018-06-19T01:50:37.826Z,70.53
2018-06-19T01:52:50.494Z,69.87
2018-06-19T01:55:02.946Z,70.17
2018-06-19T01:57:15.437Z,70.60
2018-06-19T01:59:27.823Z,70.54
2018-06-19T02:01:40.290Z,70.21
2018-06-19T02:03:52.633Z,70.03
2018-06-19T02:06:05.178Z,70.66
2018-06-19T02:08:17.553Z,70.15
2018-06-19T02:10:29.881Z,70.42
2018-06-19T02:12:42.260Z,70.29
2018-06-19T02:14:54.590Z,71.01
2018-06-19T02:17:07.135Z,70.37
2018-06-19T02:19:19.569Z,70.73
2018-06-19T02:21:31.946Z,70.94
2018-06-19T02:23:44.306Z,71.47
2018-06-19T02:25:56.699Z,71.41
2018-06-19T02:28:09.098Z,70.82
2018-06-19T02:30:21.563Z,71.64
2018-06-19T02:32:34.041Z,71.84
2018-06-19T02:34:46.409Z,72.00
2018-06-19T02:36:58.873Z,71.91
2018-06-19T02:39:11.942Z,71.84
2018-06-19T02:41:24.339Z,71.77
2018-06-19T02:43:36.883Z,71.63
2018-06-19T02:45:49.252Z,71.48
2018-06-19T02:48:01.751Z,72.17
2018-06-19T02:50:14.194Z,72.00
2018-06-19T02:52:26.531Z,72.02
2018-06-19T02:54:39.078Z,72.24
2018-06-19T02:56:51.568Z,72.15
2018-06-19T02:59:04.036Z,71.51
2018-06-19T03:01:16.553Z,71.75
2018-06-19T03:03:28.892Z,72.06
2018-06-19T03:05:41.306Z,71.27
2018-06-19T03:07:53.754Z,72.21
2018-06-19T03:10:06.162Z,72.12
2018-06-19T03:12:18.530Z,71.52
2018-06-19T03:14:30.902Z,72.03
2018-06-19T03:16:43.263Z,71.96
2018-06-19T03:18:55.688Z,72.00
2018-06-19T03:21:08.210Z,71.22
2018-06-19T03:23:20.599Z,71.21
2018-06-19T03:25:33.113Z,71.12
2018-06-19T03:27:45.508Z,71.34
2018-06-19T03:29:58.104Z,70.58
2018-06-19T03:32:10.479Z,70.48
2018-06-19T03:34:22.903Z,70.84
2018-06-19T03:36:35.322Z,70.35
2018-06-19T03:38:47.795Z,69.93
2018-06-19T03:41:00.187Z,69.88
2018-06-19T03:43:12.635Z,69.81
2018-06-19T03:45:25.162Z,70.13
2018-06-19T03:47:37.671Z,69.55
2018-06-19T03:49:50.086Z,70.18
2018-06-19T03:52:02.523Z,69.62
2018-06-19T03:54:14.862Z,70.02
2018-06-19T03:56:27.324Z,69.11
2018-06-19T03:58:39.651Z,69.81
2018-06-19T04:00:52.188Z,69.41
2018-06-19T04:03:04.841Z,69.64
2018-06-19T04:05:17.236Z,69.54
2018-06-19T04:07:29.649Z,69.70
2018-06-19T04:09:42.087Z,68.64
2018-06-19T04:11:54.459Z,68.62
2018-06-19T04:14:06.852Z,68.64
2018-06-19T04:16:19.179Z,68.53
2018-06-19T04:18:31.659Z,68.40
2018-06-19T04:20:44.014Z,68.99
2018-06-19T04:22:56.322Z,69.26
2018-06-19T04:25:08.949Z,69.33
2018-06-19T04:27:21.526Z,67.89
2018-06-19T04:29:33.910Z,67.01
2018-06-19T04:31:46.288Z,66.40
2018-06-19T04:33:58.606Z,66.75
2018-06-19T04:36:11.052Z,65.76
2018-06-19T04:38:23.426Z,66.55
2018-06-19T04:40:35.810Z,66.10
2018-06-19T04:42:48.211Z,66.00
2018-06-19T04:45:00.683Z,67.05
2018-06-19T04:47:13.073Z,66.44
2018-06-19T04:49:25.472Z,66.00
2018-06-19T04:51:37.858Z,66.95
2018-06-19T04:53:50.275Z,67.01
2018-06-19T04:56:02.718Z,67.26
2018-06-19T04:58:15.190Z,66.15
2018-06-19T05:00:27.558Z,66.28
2018-06-19T05:02:39.946Z,66.25
2018-06-19T05:04:52.625Z,66.10
2018-06-19T05:07:05.113Z,66.69
2018-06-19T05:09:17.483Z,65.75
2018-06-19T05:11:29.894Z,66.12
2018-06-19T05:13:42.306Z,66.05
2018-06-19T05:15:54.722Z,65.75
2018-06-19T05:18:07.095Z,65.96
2018-06-19T05:20:19.508Z,65.79
2018-06-19T05:22:31.789Z,65.77
2018-06-19T05:24:44.193Z,65.78
2018-06-19T05:26:56.630Z,65.92
2018-06-19T05:29:10.050Z,64.34
2018-06-19T05:31:22.490Z,63.84
2018-06-19T05:33:35.081Z,63.22
2018-06-19T05:35:47.433Z,62.57
2018-06-19T05:37:59.781Z,62.73
2018-06-19T05:40:12.375Z,62.35
2018-06-19T05:42:24.710Z,62.69
2018-06-19T05:44:37.084Z,62.35
2018-06-19T05:46:49.502Z,61.62
2018-06-19T05:49:01.893Z,61.21
2018-06-19T05:51:14.347Z,61.87
2018-06-19T05:53:26.717Z,62.29
2018-06-19T05:55:39.269Z,61.42
2018-06-19T05:57:51.666Z,61.59
2018-06-19T06:00:04.399Z,60.86
2018-06-19T06:02:16.711Z,61.50
2018-06-19T06:04:29.115Z,61.51
2018-06-19T06:06:41.542Z,61.63
2018-06-19T06:08:53.997Z,61.16
2018-06-19T06:11:06.456Z,61.25
2018-06-19T06:13:18.834Z,61.56
2018-06-19T06:15:31.206Z,60.52
2018-06-19T06:17:43.554Z,60.99
2018-06-19T06:19:55.946Z,60.85
2018-06-19T06:22:08.384Z,60.49
2018-06-19T06:24:20.754Z,59.84
2018-06-19T06:26:33.115Z,60.10
2018-06-19T06:28:45.599Z,61.30
2018-06-19T06:30:57.909Z,60.88
2018-06-19T06:33:10.238Z,60.21
2018-06-19T06:35:22.701Z,60.95
2018-06-19T06:37:35.082Z,61.51
2018-06-19T06:39:47.462Z,60.45
2018-06-19T06:41:59.788Z,61.50
2018-06-19T06:44:12.181Z,60.86
2018-06-19T06:46:25.411Z,61.72
2018-06-19T06:48:37.722Z,61.14
2018-06-19T06:50:50.073Z,60.92
2018-06-19T06:53:02.483Z,61.32
2018-06-19T06:55:14.886Z,61.04
2018-06-19T06:57:27.215Z,61.58
2018-06-19T06:59:40.544Z,61.69
2018-06-19T07:01:52.967Z,60.91
2018-06-19T07:04:05.724Z,60.82
2018-06-19T07:06:18.138Z,59.08
2018-06-19T07:08:30.512Z,58.52
2018-06-19T07:10:43.204Z,58.46
2018-06-19T07:12:55.709Z,58.49
2018-06-19T07:15:09.033Z,58.54
2018-06-19T07:17:23.334Z,56.62
2018-06-19T07:19:35.818Z,55.36
2018-06-19T07:21:49.870Z,55.72
2018-06-19T07:24:02.241Z,54.44
2018-06-19T07:26:14.641Z,52.31
2018-06-19T07:28:27.174Z,52.84
2018-06-19T07:30:43.303Z,51.00
2018-06-19T07:32:57.574Z,51.61
2018-06-19T07:35:09.876Z,49.94
2018-06-19T07:37:22.239Z,49.71
2018-06-19T07:39:34.573Z,50.91
2018-06-19T07:41:46.982Z,50.94
2018-06-19T07:43:59.471Z,52.00
2018-06-19T07:46:11.942Z,53.27
2018-06-19T07:48:24.313Z,51.20
2018-06-19T07:50:39.611Z,49.77
2018-06-19T07:52:53.815Z,49.64
2018-06-19T07:55:06.231Z,48.69
2018-06-19T07:57:18.635Z,48.97
2018-06-19T07:59:30.966Z,47.58
2018-06-19T08:01:44.077Z,50.20
2018-06-19T08:03:56.466Z,50.10
2018-06-19T08:06:08.836Z,51.25
2018-06-19T08:08:21.234Z,50.95
2018-06-19T08:10:33.751Z,51.87
2018-06-19T08:12:46.885Z,52.25
2018-06-19T08:14:59.338Z,52.72
2018-06-19T08:17:11.670Z,53.00
2018-06-19T08:19:23.999Z,53.77
2018-06-19T08:21:39.162Z,54.13
2018-06-19T08:23:51.614Z,55.47
2018-06-19T08:26:04.170Z,54.82
2018-06-19T08:28:16.610Z,54.99
2018-06-19T08:30:29.013Z,53.65
2018-06-19T08:32:41.518Z,51.83
2018-06-19T08:34:53.921Z,49.74
2018-06-19T08:37:06.293Z,48.71
2018-06-19T08:39:18.720Z,50.57
2018-06-19T08:41:31.107Z,50.38
2018-06-19T08:43:43.535Z,51.08
2018-06-19T08:45:57.750Z,51.71
2018-06-19T08:48:10.130Z,51.57
2018-06-19T08:50:22.547Z,51.92
2018-06-19T08:52:34.931Z,50.65
2018-06-19T08:54:47.336Z,51.93
2018-06-19T08:56:59.715Z,51.97
2018-06-19T08:59:12.089Z,50.89
2018-06-19T09:01:24.514Z,50.82
2018-06-19T09:03:36.866Z,51.75
2018-06-19T09:05:49.357Z,49.87
2018-06-19T09:08:01.871Z,48.92
2018-06-19T09:10:14.202Z,48.92
2018-06-19T09:12:26.529Z,48.97
2018-06-19T09:14:38.900Z,50.60
2018-06-19T09:16:51.412Z,50.86
2018-06-19T09:19:04.917Z,51.87
2018-06-19T09:21:17.383Z,51.69
2018-06-19T09:23:29.947Z,52.51
2018-06-19T09:25:42.310Z,52.46
2018-06-19T09:27:54.906Z,50.70
2018-06-19T09:30:07.276Z,51.01
2018-06-19T09:32:20.023Z,49.30
2018-06-19T09:34:32.398Z,49.15
2018-06-19T09:36:44.751Z,50.42
2018-06-19T09:38:57.746Z,49.41
2018-06-19T09:41:10.335Z,51.13
2018-06-19T09:43:22.751Z,50.57
2018-06-19T09:45:35.096Z,51.31
2018-06-19T09:47:47.527Z,50.54
2018-06-19T09:49:59.995Z,51.83
2018-06-19T09:52:12.428Z,52.15
2018-06-19T09:54:25.894Z,51.97
2018-06-19T09:56:38.513Z,51.78
2018-06-19T09:58:51.003Z,53.33
2018-06-19T10:01:03.516Z,53.65
2018-06-19T10:03:15.981Z,52.98
2018-06-19T10:05:29.086Z,53.46
2018-06-19T10:07:41.514Z,53.83
2018-06-19T10:09:53.847Z,53.16
2018-06-19T10:12:06.261Z,52.58
2018-06-19T10:14:18.633Z,51.62
2018-06-19T10:16:31.026Z,51.31
2018-06-19T10:18:43.411Z,49.55
2018-06-19T10:20:55.767Z,49.67
2018-06-19T10:23:08.201Z,50.25
2018-06-19T10:25:22.515Z,49.29
2018-06-19T10:27:35.294Z,49.06
2018-06-19T10:29:47.757Z,47.99
2018-06-19T10:32:00.190Z,48.35
2018-06-19T10:34:12.585Z,50.05
2018-06-19T10:36:24.972Z,49.06
2018-06-19T10:38:37.302Z,49.37
2018-06-19T10:40:49.741Z,50.30
2018-06-19T10:43:02.118Z,49.55
2018-06-19T10:45:14.515Z,50.14
2018-06-19T10:47:27.890Z,47.31
2018-06-19T10:49:40.304Z,45.81
2018-06-19T10:51:52.640Z,45.68
2018-06-19T10:54:05.031Z,46.09
2018-06-19T10:56:17.518Z,44.80
2018-06-19T10:58:29.869Z,44.61
2018-06-19T11:00:42.246Z,45.33
2018-06-19T11:02:55.465Z,41.21
2018-06-19T11:05:07.827Z,42.65
2018-06-19T11:07:25.754Z,41.80
2018-06-19T11:09:38.181Z,41.46
2018-06-19T11:11:50.568Z,42.60
2018-06-19T11:14:03.134Z,43.25
2018-06-19T11:16:15.631Z,44.16
2018-06-19T11:18:28.053Z,44.01
2018-06-19T11:20:40.430Z,42.76
2018-06-19T11:22:53.012Z,43.21
2018-06-19T11:25:05.443Z,44.16
2018-06-19T11:27:18.135Z,45.15
2018-06-19T11:29:30.481Z,44.82
2018-06-19T11:31:42.916Z,45.25
2018-06-19T11:33:55.311Z,44.17
2018-06-19T11:36:07.739Z,43.92
2018-06-19T11:38:20.347Z,44.02
2018-06-19T11:40:32.664Z,43.09
2018-06-19T11:42:45.198Z,43.30
2018-06-19T11:44:57.618Z,42.15
2018-06-19T11:47:10.106Z,43.17
2018-06-19T11:49:22.564Z,43.66
2018-06-19T11:51:34.935Z,43.88
2018-06-19T11:53:47.327Z,42.13
2018-06-19T11:56:00.595Z,42.51
2018-06-19T11:58:13.049Z,42.97
2018-06-19T12:00:25.555Z,42.54
2018-06-19T12:02:37.991Z,43.52
2018-06-19T12:04:50.357Z,44.67
2018-06-19T12:07:02.827Z,44.69
2018-06-19T12:09:15.230Z,44.76
2018-06-19T12:11:27.992Z,43.89
2018-06-19T12:13:40.443Z,44.43
2018-06-19T12:15:52.897Z,45.46
2018-06-19T12:18:05.478Z,44.28
2018-06-19T12:20:18.013Z,43.15
2018-06-19T12:22:30.524Z,42.25
2018-06-19T12:24:43.046Z,43.37
2018-06-19T12:26:55.548Z,43.19
2018-06-19T12:29:08.061Z,43.82
2018-06-19T12:31:20.486Z,44.83
2018-06-19T12:33:33.025Z,43.89
2018-06-19T12:35:46.368Z,42.87
2018-06-19T12:37:58.874Z,43.37
2018-06-19T12:40:11.246Z,41.56
2018-06-19T12:42:23.805Z,41.89
2018-06-19T12:44:36.260Z,42.44
2018-06-19T12:46:53.335Z,43.21
2018-06-19T12:49:06.579Z,42.66
2018-06-19T12:51:57.242Z,41.33
2018-06-19T12:56:25.599Z,42.03
2018-06-19T12:58:38.234Z,41.56
2018-06-19T13:00:50.629Z,42.21
2018-06-19T13:03:16.526Z,42.17
2018-06-19T13:05:40.535Z,40.78
2018-06-19T13:07:55.791Z,42.54
2018-06-19T13:10:08.186Z,40.78
2018-06-19T13:12:32.112Z,40.72
2018-06-19T13:14:44.492Z,42.13
2018-06-19T13:17:10.204Z,43.27
2018-06-19T13:19:34.024Z,41.88
2018-06-19T13:21:46.405Z,42.76
2018-06-19T13:23:58.799Z,41.74
2018-06-19T13:26:11.183Z,42.70
2018-06-19T13:28:34.971Z,41.98
2018-06-19T13:30:58.691Z,41.55
2018-06-19T13:33:11.042Z,42.75
2018-06-19T13:35:23.594Z,42.08
2018-06-19T13:37:35.932Z,43.56
2018-06-19T13:41:19.902Z,42.83
2018-06-19T13:43:44.011Z,41.72
2018-06-19T13:45:56.428Z,42.96
2018-06-19T13:48:08.824Z,42.74
2018-06-19T13:50:22.222Z,42.68
2018-06-19T13:52:34.585Z,42.70
2018-06-19T13:54:49.967Z,42.96
2018-06-19T13:57:21.036Z,42.79
2018-06-19T13:59:33.457Z,42.87
2018-06-19T14:01:46.021Z,42.25
2018-06-19T14:03:58.330Z,42.34
2018-06-19T14:06:10.691Z,43.90
2018-06-19T14:10:35.895Z,43.72
2018-06-19T14:13:03.739Z,43.02
2018-06-19T14:15:16.203Z,42.71
2018-06-19T14:17:31.517Z,43.59
2018-06-19T14:19:43.894Z,42.83
2018-06-19T14:21:56.320Z,43.74
2018-06-19T14:24:08.775Z,44.45
2018-06-19T14:26:21.211Z,43.21
2018-06-19T14:28:33.691Z,43.58
2018-06-19T14:30:46.058Z,43.33
2018-06-19T14:32:58.723Z,44.21
2018-06-19T14:35:11.386Z,44.28
2018-06-19T14:37:23.718Z,42.91
2018-06-19T14:39:36.134Z,42.90
2018-06-19T14:41:48.578Z,42.96
2018-06-19T14:44:00.979Z,44.00
2018-06-19T14:46:13.371Z,43.16
2018-06-19T14:48:25.821Z,43.65
2018-06-19T14:50:38.205Z,43.14
2018-06-19T14:52:57.367Z,43.35
2018-06-19T14:55:11.090Z,43.63
2018-06-19T14:57:26.375Z,43.10
2018-06-19T14:59:38.829Z,41.29
2018-06-19T15:01:51.211Z,41.89
2018-06-19T15:04:03.706Z,42.83
2018-06-19T15:06:16.109Z,43.13
2018-06-19T15:08:29.562Z,43.67
2018-06-19T15:10:43.866Z,43.52
2018-06-19T15:12:56.325Z,43.29
2018-06-19T15:15:08.701Z,43.22
2018-06-19T15:17:21.946Z,43.61
2018-06-19T15:19:34.430Z,42.97
2018-06-19T15:21:47.130Z,43.86
2018-06-19T15:23:59.577Z,44.29
2018-06-19T15:26:12.087Z,42.69
2018-06-19T15:28:24.526Z,41.82
2018-06-19T15:30:37.918Z,42.49
2018-06-19T15:32:50.405Z,43.16
2018-06-19T15:35:02.818Z,44.01
2018-06-19T15:37:17.054Z,42.67
2018-06-19T15:39:29.541Z,42.48
2018-06-19T15:41:42.342Z,42.79
2018-06-19T15:43:54.850Z,42.93
2018-06-19T15:46:07.358Z,42.98
2018-06-19T15:48:26.854Z,43.35
2018-06-19T15:50:39.249Z,42.46
2018-06-19T15:52:51.590Z,43.73
2018-06-19T15:55:04.028Z,42.50
2018-06-19T15:57:16.598Z,44.09
2018-06-19T15:59:29.000Z,44.31
2018-06-19T16:01:41.580Z,43.86
2018-06-19T16:03:54.608Z,43.43
2018-06-19T16:06:07.269Z,43.72
2018-06-19T16:08:19.854Z,43.56
2018-06-19T16:10:32.354Z,44.26
2018-06-19T16:12:44.772Z,43.79
2018-06-19T16:14:57.130Z,43.77
2018-06-19T16:17:09.535Z,43.72
2018-06-19T16:19:21.934Z,44.50
2018-06-19T16:21:34.685Z,43.98
2018-06-19T16:23:47.309Z,44.28
2018-06-19T16:25:59.702Z,43.12
2018-06-19T16:28:12.199Z,43.69
2018-06-19T16:30:24.577Z,43.08
2018-06-19T16:32:36.966Z,44.03
2018-06-19T16:34:49.375Z,44.17
2018-06-19T16:37:01.831Z,43.60
2018-06-19T16:39:14.223Z,45.02
2018-06-19T16:41:26.747Z,44.60
2018-06-19T16:43:39.168Z,44.81
2018-06-19T16:45:51.650Z,45.05
2018-06-19T16:48:04.086Z,44.30
2018-06-19T16:50:16.492Z,44.22
2018-06-19T16:52:29.038Z,43.83
2018-06-19T16:54:41.415Z,45.06
2018-06-19T16:56:53.809Z,45.33
2018-06-19T16:59:06.186Z,43.73
2018-06-19T17:01:18.597Z,45.12
2018-06-19T17:03:30.938Z,44.98
2018-06-19T17:05:44.182Z,45.12
2018-06-19T17:07:56.545Z,44.25
2018-06-19T17:10:09.469Z,44.76
2018-06-19T17:12:21.818Z,45.31
2018-06-19T17:14:34.371Z,45.18
2018-06-19T17:16:46.799Z,44.94
2018-06-19T17:18:59.418Z,44.74
2018-06-19T17:21:11.792Z,46.02
2018-06-19T17:23:24.210Z,45.49
2018-06-19T17:25:36.719Z,46.43
2018-06-19T17:27:49.076Z,45.88
2018-06-19T17:30:01.640Z,46.03
2018-06-19T17:32:14.022Z,46.34
2018-06-19T17:34:26.404Z,47.22
2018-06-19T17:36:38.854Z,46.68
2018-06-19T17:38:51.245Z,46.23
2018-06-19T17:43:16.198Z,47.32
2018-06-19T17:45:28.572Z,47.57
2018-06-19T17:47:40.965Z,47.45
2018-06-19T17:49:53.449Z,47.71
2018-06-19T17:52:05.906Z,47.88
2018-06-19T17:54:18.288Z,48.04
2018-06-19T17:56:30.651Z,47.83
2018-06-19T17:58:43.067Z,46.91
2018-06-19T18:00:55.665Z,47.48
2018-06-19T18:03:08.028Z,47.35
2018-06-19T18:05:20.382Z,48.51
2018-06-19T18:07:32.873Z,47.94
2018-06-19T18:09:45.287Z,48.01
2018-06-19T18:11:57.757Z,48.56
2018-06-19T18:14:10.148Z,48.75
2018-06-19T18:16:22.514Z,48.74
2018-06-19T18:18:34.893Z,48.07
2018-06-19T18:20:47.519Z,48.85
2018-06-19T18:23:00.002Z,49.01
2018-06-19T18:25:12.390Z,48.91
2018-06-19T18:27:24.755Z,48.85
2018-06-19T18:29:37.191Z,49.14
2018-06-19T18:31:49.713Z,49.06
2018-06-19T18:34:02.218Z,48.52
2018-06-19T18:36:14.583Z,49.51
2018-06-19T18:38:27.089Z,49.12
2018-06-19T18:40:39.539Z,49.65
2018-06-19T18:42:52.004Z,49.43
2018-06-19T18:45:04.427Z,49.63
2018-06-19T18:47:16.996Z,49.64
2018-06-19T18:49:29.348Z,50.12
2018-06-19T18:51:41.718Z,50.13
2018-06-19T18:53:54.065Z,49.79
2018-06-19T18:56:06.390Z,49.78
2018-06-19T18:58:18.781Z,50.02
2018-06-19T19:00:31.253Z,50.52
2018-06-19T19:02:43.642Z,49.86
2018-06-19T19:04:56.123Z,50.68
2018-06-19T19:07:08.426Z,50.86
2018-06-19T19:09:20.825Z,50.80
2018-06-19T19:11:33.272Z,50.22
2018-06-19T19:13:45.963Z,51.18
2018-06-19T19:16:04.090Z,50.98
2018-06-19T19:18:22.024Z,51.12
2018-06-19T19:20:34.478Z,50.75
2018-06-19T19:22:46.858Z,51.03
2018-06-19T19:24:59.294Z,51.25
2018-06-19T19:27:17.345Z,51.28
2018-06-19T19:29:35.326Z,51.82
2018-06-19T19:31:47.735Z,51.88
2018-06-19T19:34:00.243Z,51.46
2018-06-19T19:36:18.149Z,51.74
2018-06-19T19:38:36.128Z,52.76
2018-06-19T19:40:48.661Z,52.21
2018-06-19T19:43:01.026Z,52.87
2018-06-19T19:45:13.458Z,53.24
2018-06-19T19:47:31.582Z,53.91
2018-06-19T19:49:44.001Z,53.03
2018-06-19T19:51:56.496Z,54.00
2018-06-19T19:54:08.942Z,53.37
2018-06-19T19:56:26.904Z,53.56
2018-06-19T19:58:44.785Z,53.20
2018-06-19T20:00:57.442Z,53.91
2018-06-19T20:03:09.916Z,54.11
2018-06-19T20:05:22.367Z,53.13
2018-06-19T20:07:34.854Z,53.08
2018-06-19T20:09:47.314Z,53.23
2018-06-19T20:11:59.690Z,54.91
2018-06-19T20:14:12.165Z,55.78
2018-06-19T20:16:25.214Z,57.35
2018-06-19T20:18:37.685Z,57.12
2018-06-19T20:20:50.167Z,57.61
2018-06-19T20:23:02.604Z,57.77
2018-06-19T20:25:15.038Z,58.77
2018-06-19T20:27:27.421Z,58.51
2018-06-19T20:29:39.813Z,58.95
2018-06-19T20:31:52.254Z,58.98
2018-06-19T20:34:05.032Z,59.14
2018-06-19T20:36:17.489Z,59.64
2018-06-19T20:38:29.945Z,60.50
2018-06-19T20:40:42.374Z,61.20
2018-06-19T20:42:54.762Z,60.51
2018-06-19T20:45:07.243Z,61.43
2018-06-19T20:47:19.582Z,60.58
2018-06-19T20:49:32.310Z,60.77
2018-06-19T20:51:44.679Z,61.93
2018-06-19T20:53:57.073Z,61.78
2018-06-19T20:56:09.457Z,61.97
2018-06-19T20:58:22.661Z,61.38
2018-06-19T21:00:35.099Z,62.66
2018-06-19T21:02:47.501Z,62.33
2018-06-19T21:04:59.959Z,63.32
2018-06-19T21:07:12.474Z,62.16
2018-06-19T21:09:24.982Z,62.94
2018-06-19T21:11:37.504Z,63.58
2018-06-19T21:13:49.866Z,63.11
2018-06-19T21:16:02.416Z,63.39
2018-06-19T21:18:14.863Z,63.88
2018-06-19T21:20:27.187Z,63.49
2018-06-19T21:22:39.572Z,63.87
2018-06-19T21:24:51.964Z,64.34
2018-06-19T21:27:04.415Z,64.47
2018-06-19T21:29:16.813Z,64.42
2018-06-19T21:31:29.166Z,64.38
2018-06-19T21:33:41.647Z,64.76
2018-06-19T21:35:54.067Z,65.16
2018-06-19T21:38:06.574Z,65.64
2018-06-19T21:40:18.934Z,65.48
2018-06-19T21:42:31.335Z,65.23
2018-06-19T21:44:43.838Z,65.50
2018-06-19T21:46:56.469Z,65.94
2018-06-19T21:49:08.901Z,65.46
2018-06-19T21:51:21.279Z,65.76
2018-06-19T21:53:33.658Z,66.08
2018-06-19T21:55:46.069Z,65.29
2018-06-19T21:57:58.471Z,65.29
2018-06-19T22:00:11.576Z,66.39
2018-06-19T22:02:29.509Z,66.45
2018-06-19T22:04:42.042Z,65.93
2018-06-19T22:06:54.592Z,66.57
2018-06-19T22:09:07.051Z,66.40
2018-06-19T22:11:19.958Z,66.41
2018-06-19T22:13:32.601Z,66.60
2018-06-19T22:15:45.059Z,66.15
2018-06-19T22:17:57.471Z,66.68
2018-06-19T22:20:09.823Z,66.15
2018-06-19T22:22:22.257Z,66.91
2018-06-19T22:24:34.752Z,66.56
2018-06-19T22:26:47.175Z,66.17
2018-06-19T22:28:59.534Z,66.94
2018-06-19T22:31:11.979Z,67.05
2018-06-19T22:33:24.464Z,65.69
2018-06-19T22:35:36.806Z,66.21
2018-06-19T22:37:49.286Z,67.09
2018-06-19T22:40:01.720Z,67.36
2018-06-19T22:42:14.102Z,66.87
2018-06-19T22:44:26.698Z,67.04
2018-06-19T22:46:39.134Z,67.71
2018-06-19T22:48:51.529Z,68.01
2018-06-19T22:51:03.959Z,67.31
2018-06-19T22:53:16.327Z,67.38
2018-06-19T22:55:28.816Z,68.20
2018-06-19T22:57:41.158Z,67.94
2018-06-19T22:59:53.570Z,68.54
2018-06-19T23:02:06.172Z,68.35
2018-06-19T23:04:18.538Z,67.98
2018-06-19T23:06:30.935Z,68.78
2018-06-19T23:08:43.323Z,68.37
2018-06-19T23:10:55.674Z,68.99
2018-06-19T23:13:08.089Z,69.18
2018-06-19T23:15:20.657Z,68.25
2018-06-19T23:17:32.974Z,68.60
2018-06-19T23:19:45.422Z,68.71
2018-06-19T23:21:57.791Z,68.78
2018-06-19T23:24:10.269Z,67.89
2018-06-19T23:26:22.762Z,68.91
2018-06-19T23:28:35.102Z,69.00
2018-06-19T23:30:47.594Z,68.30
2018-06-19T23:33:00.051Z,68.25
2018-06-19T23:35:12.538Z,68.90
2018-06-19T23:37:24.953Z,68.85
2018-06-19T23:39:37.313Z,68.80
2018-06-19T23:41:49.751Z,67.98
2018-06-19T23:44:02.126Z,68.64
2018-06-19T23:46:14.662Z,69.03
2018-06-19T23:48:27.118Z,69.08
2018-06-19T23:50:39.643Z,69.41
2018-06-19T23:52:52.016Z,69.28
2018-06-19T23:55:04.394Z,69.26
2018-06-19T23:57:16.914Z,69.96
2018-06-19T23:59:29.226Z,68.88
